sensor_id;sensor_type;location;lat;lon;timestamp;P1;durP1;ratioP1;P2;durP2;ratioP2
35026;SDS011;60696;51.426;6.934;2022-11-20T00:00:47;17.80;;;7.53;;
35026;SDS011;60696;51.426;6.934;2022-11-20T00:03:13;16.23;;;7.40;;
35026;SDS011;60696;51.426;6.934;2022-11-20T00:05:39;12.48;;;7.85;;
35026;SDS011;60696;51.426;6.934;2022-11-20T00:08:05;18.38;;;8.07;;
35026;SDS011;60696;51.426;6.934;2022-11-20T00:10:30;13.05;;;8.10;;
35026;SDS011;60696;51.426;6.934;2022-11-20T00:12:57;18.38;;;8.55;;
35026;SDS011;60696;51.426;6.934;2022-11-20T00:15:23;19.33;;;8.75;;
35026;SDS011;60696;51.426;6.934;2022-11-20T00:17:49;13.85;;;8.13;;
35026;SDS011;60696;51.426;6.934;2022-11-20T00:20:15;14.98;;;7.70;;
35026;SDS011;60696;51.426;6.934;2022-11-20T00:22:41;17.63;;;9.00;;
35026;SDS011;60696;51.426;6.934;2022-11-20T00:25:06;20.00;;;9.15;;
35026;SDS011;60696;51.426;6.934;2022-11-20T00:27:32;14.43;;;7.93;;
35026;SDS011;60696;51.426;6.934;2022-11-20T00:29:58;16.55;;;8.23;;
35026;SDS011;60696;51.426;6.934;2022-11-20T00:32:23;15.75;;;8.30;;
35026;SDS011;60696;51.426;6.934;2022-11-20T00:34:49;17.75;;;9.13;;
35026;SDS011;60696;51.426;6.934;2022-11-20T00:37:14;19.48;;;9.32;;
35026;SDS011;60696;51.426;6.934;2022-11-20T00:39:40;15.88;;;8.13;;
35026;SDS011;60696;51.426;6.934;2022-11-20T00:42:06;27.98;;;9.18;;
35026;SDS011;60696;51.426;6.934;2022-11-20T00:44:31;21.02;;;10.00;;
35026;SDS011;60696;51.426;6.934;2022-11-20T00:46:57;20.25;;;8.10;;
35026;SDS011;60696;51.426;6.934;2022-11-20T00:49:22;16.65;;;8.07;;
35026;SDS011;60696;51.426;6.934;2022-11-20T00:51:48;16.67;;;8.38;;
35026;SDS011;60696;51.426;6.934;2022-11-20T00:54:13;22.20;;;10.07;;
35026;SDS011;60696;51.426;6.934;2022-11-20T00:56:39;18.85;;;9.38;;
35026;SDS011;60696;51.426;6.934;2022-11-20T00:59:05;17.90;;;8.85;;
35026;SDS011;60696;51.426;6.934;2022-11-20T01:01:30;18.00;;;8.40;;
35026;SDS011;60696;51.426;6.934;2022-11-20T01:03:57;20.92;;;8.07;;
35026;SDS011;60696;51.426;6.934;2022-11-20T01:06:34;15.43;;;7.90;;
35026;SDS011;60696;51.426;6.934;2022-11-20T01:09:06;18.05;;;8.48;;
35026;SDS011;60696;51.426;6.934;2022-11-20T01:11:37;17.90;;;8.02;;
35026;SDS011;60696;51.426;6.934;2022-11-20T01:14:05;13.52;;;7.35;;
35026;SDS011;60696;51.426;6.934;2022-11-20T01:16:35;11.32;;;7.00;;
35026;SDS011;60696;51.426;6.934;2022-11-20T01:19:06;17.65;;;8.75;;
35026;SDS011;60696;51.426;6.934;2022-11-20T01:21:35;16.70;;;8.13;;
35026;SDS011;60696;51.426;6.934;2022-11-20T01:24:03;12.10;;;6.10;;
35026;SDS011;60696;51.426;6.934;2022-11-20T01:26:31;14.45;;;8.93;;
35026;SDS011;60696;51.426;6.934;2022-11-20T01:28:58;16.98;;;9.68;;
35026;SDS011;60696;51.426;6.934;2022-11-20T01:31:26;19.95;;;8.70;;
35026;SDS011;60696;51.426;6.934;2022-11-20T01:34:04;13.93;;;7.90;;
35026;SDS011;60696;51.426;6.934;2022-11-20T01:36:41;17.98;;;8.98;;
35026;SDS011;60696;51.426;6.934;2022-11-20T01:39:12;13.38;;;8.05;;
35026;SDS011;60696;51.426;6.934;2022-11-20T01:41:40;18.13;;;8.90;;
35026;SDS011;60696;51.426;6.934;2022-11-20T01:47:27;15.85;;;7.70;;
35026;SDS011;60696;51.426;6.934;2022-11-20T01:50:01;15.18;;;8.57;;
35026;SDS011;60696;51.426;6.934;2022-11-20T01:52:42;15.73;;;7.93;;
35026;SDS011;60696;51.426;6.934;2022-11-20T01:55:13;16.17;;;7.97;;
35026;SDS011;60696;51.426;6.934;2022-11-20T01:57:44;20.50;;;7.63;;
35026;SDS011;60696;51.426;6.934;2022-11-20T02:00:14;15.95;;;7.53;;
35026;SDS011;60696;51.426;6.934;2022-11-20T02:02:42;16.08;;;7.60;;
35026;SDS011;60696;51.426;6.934;2022-11-20T02:08:00;13.93;;;6.95;;
35026;SDS011;60696;51.426;6.934;2022-11-20T02:10:29;13.02;;;6.82;;
35026;SDS011;60696;51.426;6.934;2022-11-20T02:12:55;13.23;;;7.80;;
35026;SDS011;60696;51.426;6.934;2022-11-20T02:15:40;13.57;;;7.50;;
35026;SDS011;60696;51.426;6.934;2022-11-20T02:18:06;15.38;;;7.75;;
35026;SDS011;60696;51.426;6.934;2022-11-20T02:20:34;15.90;;;7.80;;
35026;SDS011;60696;51.426;6.934;2022-11-20T02:23:02;13.57;;;6.85;;
35026;SDS011;60696;51.426;6.934;2022-11-20T02:25:33;13.45;;;7.05;;
35026;SDS011;60696;51.426;6.934;2022-11-20T02:28:01;12.70;;;7.65;;
35026;SDS011;60696;51.426;6.934;2022-11-20T02:30:27;15.27;;;7.80;;
35026;SDS011;60696;51.426;6.934;2022-11-20T02:32:53;14.95;;;8.30;;
35026;SDS011;60696;51.426;6.934;2022-11-20T02:37:44;16.65;;;8.27;;
35026;SDS011;60696;51.426;6.934;2022-11-20T02:40:13;16.90;;;8.35;;
35026;SDS011;60696;51.426;6.934;2022-11-20T02:42:39;15.63;;;8.35;;
35026;SDS011;60696;51.426;6.934;2022-11-20T02:45:05;15.88;;;8.55;;
35026;SDS011;60696;51.426;6.934;2022-11-20T02:47:31;19.00;;;9.23;;
35026;SDS011;60696;51.426;6.934;2022-11-20T02:49:57;20.00;;;9.07;;
35026;SDS011;60696;51.426;6.934;2022-11-20T02:52:23;17.40;;;8.77;;
35026;SDS011;60696;51.426;6.934;2022-11-20T02:54:49;16.23;;;8.93;;
35026;SDS011;60696;51.426;6.934;2022-11-20T02:57:14;16.25;;;7.72;;
35026;SDS011;60696;51.426;6.934;2022-11-20T02:59:40;19.92;;;8.35;;
35026;SDS011;60696;51.426;6.934;2022-11-20T03:02:06;18.92;;;8.43;;
35026;SDS011;60696;51.426;6.934;2022-11-20T03:04:31;16.73;;;8.30;;
35026;SDS011;60696;51.426;6.934;2022-11-20T03:06:57;13.93;;;7.40;;
35026;SDS011;60696;51.426;6.934;2022-11-20T03:09:22;16.50;;;8.23;;
35026;SDS011;60696;51.426;6.934;2022-11-20T03:11:48;16.90;;;8.50;;
35026;SDS011;60696;51.426;6.934;2022-11-20T03:14:13;14.95;;;8.18;;
35026;SDS011;60696;51.426;6.934;2022-11-20T03:16:39;15.98;;;8.90;;
35026;SDS011;60696;51.426;6.934;2022-11-20T03:19:05;13.30;;;7.72;;
35026;SDS011;60696;51.426;6.934;2022-11-20T03:21:32;18.05;;;8.32;;
35026;SDS011;60696;51.426;6.934;2022-11-20T03:23:58;11.95;;;6.72;;
35026;SDS011;60696;51.426;6.934;2022-11-20T03:26:25;14.82;;;8.32;;
35026;SDS011;60696;51.426;6.934;2022-11-20T03:31:20;22.60;;;8.40;;
35026;SDS011;60696;51.426;6.934;2022-11-20T03:33:47;14.48;;;7.97;;
35026;SDS011;60696;51.426;6.934;2022-11-20T03:36:13;14.98;;;8.38;;
35026;SDS011;60696;51.426;6.934;2022-11-20T03:38:40;15.73;;;8.50;;
35026;SDS011;60696;51.426;6.934;2022-11-20T03:41:16;17.27;;;7.78;;
35026;SDS011;60696;51.426;6.934;2022-11-20T03:43:50;18.33;;;8.27;;
35026;SDS011;60696;51.426;6.934;2022-11-20T03:46:16;17.17;;;8.70;;
35026;SDS011;60696;51.426;6.934;2022-11-20T03:48:42;18.17;;;8.50;;
35026;SDS011;60696;51.426;6.934;2022-11-20T03:53:40;13.82;;;7.95;;
35026;SDS011;60696;51.426;6.934;2022-11-20T03:56:07;14.73;;;8.30;;
35026;SDS011;60696;51.426;6.934;2022-11-20T03:58:34;16.90;;;8.15;;
35026;SDS011;60696;51.426;6.934;2022-11-20T04:01:10;14.98;;;7.78;;
35026;SDS011;60696;51.426;6.934;2022-11-20T04:03:38;19.13;;;8.75;;
35026;SDS011;60696;51.426;6.934;2022-11-20T04:06:15;14.23;;;7.10;;
35026;SDS011;60696;51.426;6.934;2022-11-20T04:08:53;14.20;;;7.28;;
35026;SDS011;60696;51.426;6.934;2022-11-20T04:11:21;19.63;;;8.88;;
35026;SDS011;60696;51.426;6.934;2022-11-20T04:13:49;19.60;;;9.82;;
35026;SDS011;60696;51.426;6.934;2022-11-20T04:16:16;18.10;;;9.68;;
35026;SDS011;60696;51.426;6.934;2022-11-20T04:18:43;16.52;;;9.43;;
35026;SDS011;60696;51.426;6.934;2022-11-20T04:21:08;17.48;;;9.93;;
35026;SDS011;60696;51.426;6.934;2022-11-20T04:23:35;13.93;;;7.80;;
35026;SDS011;60696;51.426;6.934;2022-11-20T04:26:02;19.13;;;9.95;;
35026;SDS011;60696;51.426;6.934;2022-11-20T04:28:28;16.95;;;8.75;;
35026;SDS011;60696;51.426;6.934;2022-11-20T04:30:53;22.45;;;10.65;;
35026;SDS011;60696;51.426;6.934;2022-11-20T04:33:19;20.83;;;9.95;;
35026;SDS011;60696;51.426;6.934;2022-11-20T04:35:44;16.58;;;9.50;;
35026;SDS011;60696;51.426;6.934;2022-11-20T04:38:12;17.48;;;10.00;;
35026;SDS011;60696;51.426;6.934;2022-11-20T04:40:38;21.73;;;9.82;;
35026;SDS011;60696;51.426;6.934;2022-11-20T04:43:03;22.50;;;10.60;;
35026;SDS011;60696;51.426;6.934;2022-11-20T04:45:29;19.50;;;10.15;;
35026;SDS011;60696;51.426;6.934;2022-11-20T04:47:55;19.25;;;9.88;;
35026;SDS011;60696;51.426;6.934;2022-11-20T04:50:20;19.88;;;10.23;;
35026;SDS011;60696;51.426;6.934;2022-11-20T04:52:46;17.77;;;9.40;;
35026;SDS011;60696;51.426;6.934;2022-11-20T04:55:11;19.10;;;10.75;;
35026;SDS011;60696;51.426;6.934;2022-11-20T04:57:37;21.65;;;9.30;;
35026;SDS011;60696;51.426;6.934;2022-11-20T05:00:03;20.30;;;9.38;;
35026;SDS011;60696;51.426;6.934;2022-11-20T05:02:30;23.58;;;9.93;;
35026;SDS011;60696;51.426;6.934;2022-11-20T05:04:56;18.40;;;10.10;;
35026;SDS011;60696;51.426;6.934;2022-11-20T05:07:21;17.08;;;9.80;;
35026;SDS011;60696;51.426;6.934;2022-11-20T05:09:47;21.92;;;11.07;;
35026;SDS011;60696;51.426;6.934;2022-11-20T05:12:12;20.35;;;10.25;;
35026;SDS011;60696;51.426;6.934;2022-11-20T05:14:38;20.52;;;9.90;;
35026;SDS011;60696;51.426;6.934;2022-11-20T05:17:03;17.88;;;9.57;;
35026;SDS011;60696;51.426;6.934;2022-11-20T05:19:29;19.70;;;9.85;;
35026;SDS011;60696;51.426;6.934;2022-11-20T05:21:55;16.40;;;10.25;;
35026;SDS011;60696;51.426;6.934;2022-11-20T05:24:20;21.67;;;10.88;;
35026;SDS011;60696;51.426;6.934;2022-11-20T05:26:46;21.15;;;11.15;;
35026;SDS011;60696;51.426;6.934;2022-11-20T05:29:12;22.45;;;10.88;;
35026;SDS011;60696;51.426;6.934;2022-11-20T05:31:38;18.45;;;10.05;;
35026;SDS011;60696;51.426;6.934;2022-11-20T05:34:05;21.00;;;10.85;;
35026;SDS011;60696;51.426;6.934;2022-11-20T05:36:31;22.15;;;11.15;;
35026;SDS011;60696;51.426;6.934;2022-11-20T05:38:57;24.83;;;11.27;;
35026;SDS011;60696;51.426;6.934;2022-11-20T05:41:22;23.80;;;11.15;;
35026;SDS011;60696;51.426;6.934;2022-11-20T05:43:48;24.58;;;11.63;;
35026;SDS011;60696;51.426;6.934;2022-11-20T05:46:15;25.52;;;12.75;;
35026;SDS011;60696;51.426;6.934;2022-11-20T05:48:43;27.20;;;11.85;;
35026;SDS011;60696;51.426;6.934;2022-11-20T05:51:10;21.17;;;11.27;;
35026;SDS011;60696;51.426;6.934;2022-11-20T05:53:37;24.45;;;11.88;;
35026;SDS011;60696;51.426;6.934;2022-11-20T05:56:04;20.83;;;10.60;;
35026;SDS011;60696;51.426;6.934;2022-11-20T05:58:32;19.65;;;10.95;;
35026;SDS011;60696;51.426;6.934;2022-11-20T06:03:34;18.85;;;10.73;;
35026;SDS011;60696;51.426;6.934;2022-11-20T06:06:00;19.33;;;9.68;;
35026;SDS011;60696;51.426;6.934;2022-11-20T06:08:27;21.00;;;10.35;;
35026;SDS011;60696;51.426;6.934;2022-11-20T06:10:53;17.58;;;9.48;;
35026;SDS011;60696;51.426;6.934;2022-11-20T06:13:18;20.25;;;11.30;;
35026;SDS011;60696;51.426;6.934;2022-11-20T06:15:50;16.88;;;9.93;;
35026;SDS011;60696;51.426;6.934;2022-11-20T06:18:17;21.35;;;10.07;;
35026;SDS011;60696;51.426;6.934;2022-11-20T06:20:43;20.02;;;9.88;;
35026;SDS011;60696;51.426;6.934;2022-11-20T06:23:09;18.73;;;10.38;;
35026;SDS011;60696;51.426;6.934;2022-11-20T06:25:38;21.13;;;10.40;;
35026;SDS011;60696;51.426;6.934;2022-11-20T06:28:05;19.55;;;9.75;;
35026;SDS011;60696;51.426;6.934;2022-11-20T06:30:30;19.20;;;10.35;;
35026;SDS011;60696;51.426;6.934;2022-11-20T06:32:56;15.45;;;9.30;;
35026;SDS011;60696;51.426;6.934;2022-11-20T06:35:22;20.20;;;9.25;;
35026;SDS011;60696;51.426;6.934;2022-11-20T06:37:47;19.98;;;10.43;;
35026;SDS011;60696;51.426;6.934;2022-11-20T06:40:13;18.38;;;9.40;;
35026;SDS011;60696;51.426;6.934;2022-11-20T06:42:38;14.75;;;8.35;;
35026;SDS011;60696;51.426;6.934;2022-11-20T06:45:04;15.30;;;8.30;;
35026;SDS011;60696;51.426;6.934;2022-11-20T06:47:30;17.23;;;9.45;;
35026;SDS011;60696;51.426;6.934;2022-11-20T06:49:55;18.05;;;8.88;;
35026;SDS011;60696;51.426;6.934;2022-11-20T06:52:21;17.92;;;9.38;;
35026;SDS011;60696;51.426;6.934;2022-11-20T06:54:47;18.60;;;10.13;;
35026;SDS011;60696;51.426;6.934;2022-11-20T06:57:12;19.05;;;9.77;;
35026;SDS011;60696;51.426;6.934;2022-11-20T06:59:38;18.13;;;9.63;;
35026;SDS011;60696;51.426;6.934;2022-11-20T07:02:03;20.05;;;8.20;;
35026;SDS011;60696;51.426;6.934;2022-11-20T07:04:29;18.08;;;9.13;;
35026;SDS011;60696;51.426;6.934;2022-11-20T07:06:54;17.52;;;9.40;;
35026;SDS011;60696;51.426;6.934;2022-11-20T07:09:20;18.33;;;9.05;;
35026;SDS011;60696;51.426;6.934;2022-11-20T07:11:45;18.77;;;9.00;;
35026;SDS011;60696;51.426;6.934;2022-11-20T07:14:11;16.08;;;8.60;;
35026;SDS011;60696;51.426;6.934;2022-11-20T07:16:37;15.95;;;9.40;;
35026;SDS011;60696;51.426;6.934;2022-11-20T07:19:02;18.02;;;8.95;;
35026;SDS011;60696;51.426;6.934;2022-11-20T07:21:28;15.52;;;8.90;;
35026;SDS011;60696;51.426;6.934;2022-11-20T07:23:53;24.10;;;10.15;;
35026;SDS011;60696;51.426;6.934;2022-11-20T07:26:20;15.50;;;8.38;;
35026;SDS011;60696;51.426;6.934;2022-11-20T07:28:45;16.80;;;9.00;;
35026;SDS011;60696;51.426;6.934;2022-11-20T07:31:11;17.10;;;8.50;;
35026;SDS011;60696;51.426;6.934;2022-11-20T07:33:37;14.77;;;8.98;;
35026;SDS011;60696;51.426;6.934;2022-11-20T07:36:03;15.73;;;8.77;;
35026;SDS011;60696;51.426;6.934;2022-11-20T07:38:29;13.57;;;7.88;;
35026;SDS011;60696;51.426;6.934;2022-11-20T07:40:57;18.50;;;9.50;;
35026;SDS011;60696;51.426;6.934;2022-11-20T07:43:23;18.40;;;9.98;;
35026;SDS011;60696;51.426;6.934;2022-11-20T07:45:50;17.27;;;8.50;;
35026;SDS011;60696;51.426;6.934;2022-11-20T07:48:15;17.50;;;8.82;;
35026;SDS011;60696;51.426;6.934;2022-11-20T07:50:41;16.90;;;8.77;;
35026;SDS011;60696;51.426;6.934;2022-11-20T07:53:07;14.95;;;8.85;;
35026;SDS011;60696;51.426;6.934;2022-11-20T07:55:32;15.55;;;8.07;;
35026;SDS011;60696;51.426;6.934;2022-11-20T07:57:58;15.90;;;8.02;;
35026;SDS011;60696;51.426;6.934;2022-11-20T08:00:24;16.92;;;8.10;;
35026;SDS011;60696;51.426;6.934;2022-11-20T08:02:51;20.58;;;10.20;;
35026;SDS011;60696;51.426;6.934;2022-11-20T08:05:16;15.95;;;8.75;;
35026;SDS011;60696;51.426;6.934;2022-11-20T08:07:42;15.73;;;8.43;;
35026;SDS011;60696;51.426;6.934;2022-11-20T08:10:09;20.73;;;9.82;;
35026;SDS011;60696;51.426;6.934;2022-11-20T08:12:42;16.30;;;8.90;;
35026;SDS011;60696;51.426;6.934;2022-11-20T08:15:27;19.17;;;8.95;;
35026;SDS011;60696;51.426;6.934;2022-11-20T08:17:58;19.80;;;9.35;;
35026;SDS011;60696;51.426;6.934;2022-11-20T08:20:28;17.17;;;8.45;;
35026;SDS011;60696;51.426;6.934;2022-11-20T08:22:57;12.95;;;8.20;;
35026;SDS011;60696;51.426;6.934;2022-11-20T08:25:25;16.85;;;8.23;;
35026;SDS011;60696;51.426;6.934;2022-11-20T08:27:50;15.68;;;8.98;;
35026;SDS011;60696;51.426;6.934;2022-11-20T08:30:16;16.33;;;7.82;;
35026;SDS011;60696;51.426;6.934;2022-11-20T08:32:42;12.90;;;7.88;;
35026;SDS011;60696;51.426;6.934;2022-11-20T08:35:08;17.05;;;7.90;;
35026;SDS011;60696;51.426;6.934;2022-11-20T08:37:33;17.90;;;7.55;;
35026;SDS011;60696;51.426;6.934;2022-11-20T08:39:59;11.98;;;6.82;;
35026;SDS011;60696;51.426;6.934;2022-11-20T08:42:24;12.88;;;7.28;;
35026;SDS011;60696;51.426;6.934;2022-11-20T08:44:50;16.33;;;6.97;;
35026;SDS011;60696;51.426;6.934;2022-11-20T08:47:16;14.88;;;7.95;;
35026;SDS011;60696;51.426;6.934;2022-11-20T08:49:41;12.20;;;7.85;;
35026;SDS011;60696;51.426;6.934;2022-11-20T08:52:07;14.85;;;8.43;;
35026;SDS011;60696;51.426;6.934;2022-11-20T08:54:32;17.10;;;8.25;;
35026;SDS011;60696;51.426;6.934;2022-11-20T08:56:58;16.02;;;9.02;;
35026;SDS011;60696;51.426;6.934;2022-11-20T08:59:23;17.48;;;8.77;;
35026;SDS011;60696;51.426;6.934;2022-11-20T09:01:49;17.77;;;8.02;;
35026;SDS011;60696;51.426;6.934;2022-11-20T09:04:15;18.70;;;9.32;;
35026;SDS011;60696;51.426;6.934;2022-11-20T09:06:40;14.20;;;8.00;;
35026;SDS011;60696;51.426;6.934;2022-11-20T09:09:06;16.02;;;7.85;;
35026;SDS011;60696;51.426;6.934;2022-11-20T09:11:31;12.73;;;7.40;;
35026;SDS011;60696;51.426;6.934;2022-11-20T09:13:57;13.93;;;7.78;;
35026;SDS011;60696;51.426;6.934;2022-11-20T09:16:23;14.68;;;8.07;;
35026;SDS011;60696;51.426;6.934;2022-11-20T09:18:49;13.70;;;8.05;;
35026;SDS011;60696;51.426;6.934;2022-11-20T09:21:16;14.75;;;8.45;;
35026;SDS011;60696;51.426;6.934;2022-11-20T09:23:41;18.42;;;8.68;;
35026;SDS011;60696;51.426;6.934;2022-11-20T09:26:09;13.43;;;8.32;;
35026;SDS011;60696;51.426;6.934;2022-11-20T09:28:36;15.70;;;8.30;;
35026;SDS011;60696;51.426;6.934;2022-11-20T09:31:08;16.70;;;8.55;;
35026;SDS011;60696;51.426;6.934;2022-11-20T09:33:39;14.90;;;8.25;;
35026;SDS011;60696;51.426;6.934;2022-11-20T09:36:07;14.35;;;8.52;;
35026;SDS011;60696;51.426;6.934;2022-11-20T09:38:34;14.23;;;8.38;;
35026;SDS011;60696;51.426;6.934;2022-11-20T09:41:03;13.80;;;7.85;;
35026;SDS011;60696;51.426;6.934;2022-11-20T09:54:57;12.43;;;7.70;;
35026;SDS011;60696;51.426;6.934;2022-11-20T09:57:29;11.10;;;6.82;;
35026;SDS011;60696;51.426;6.934;2022-11-20T10:00:01;12.27;;;7.78;;
35026;SDS011;60696;51.426;6.934;2022-11-20T10:03:16;12.35;;;7.80;;
35026;SDS011;60696;51.426;6.934;2022-11-20T10:05:26;9.50;;;6.35;;
35026;SDS011;60696;51.426;6.934;2022-11-20T10:08:22;9.25;;;6.55;;
35026;SDS011;60696;51.426;6.934;2022-11-20T10:11:18;10.77;;;5.95;;
35026;SDS011;60696;51.426;6.934;2022-11-20T10:25:24;10.13;;;6.90;;
35026;SDS011;60696;51.426;6.934;2022-11-20T10:30:55;12.50;;;8.35;;
35026;SDS011;60696;51.426;6.934;2022-11-20T10:33:25;14.43;;;8.15;;
35026;SDS011;60696;51.426;6.934;2022-11-20T10:36:01;14.27;;;7.60;;
35026;SDS011;60696;51.426;6.934;2022-11-20T10:38:53;13.10;;;7.40;;
35026;SDS011;60696;51.426;6.934;2022-11-20T10:41:24;13.65;;;7.72;;
35026;SDS011;60696;51.426;6.934;2022-11-20T10:47:15;14.25;;;7.88;;
35026;SDS011;60696;51.426;6.934;2022-11-20T10:49:42;12.88;;;7.63;;
35026;SDS011;60696;51.426;6.934;2022-11-20T10:55:13;11.35;;;6.63;;
35026;SDS011;60696;51.426;6.934;2022-11-20T11:00:38;13.60;;;7.57;;
35026;SDS011;60696;51.426;6.934;2022-11-20T11:03:24;14.27;;;6.95;;
35026;SDS011;60696;51.426;6.934;2022-11-20T11:05:59;15.02;;;7.55;;
35026;SDS011;60696;51.426;6.934;2022-11-20T11:08:40;15.18;;;7.80;;
35026;SDS011;60696;51.426;6.934;2022-11-20T11:11:21;11.50;;;6.72;;
35026;SDS011;60696;51.426;6.934;2022-11-20T11:13:49;13.50;;;7.30;;
35026;SDS011;60696;51.426;6.934;2022-11-20T11:16:25;14.40;;;7.57;;
35026;SDS011;60696;51.426;6.934;2022-11-20T11:19:02;14.02;;;7.70;;
35026;SDS011;60696;51.426;6.934;2022-11-20T11:21:29;12.80;;;7.60;;
35026;SDS011;60696;51.426;6.934;2022-11-20T11:24:02;16.10;;;8.02;;
35026;SDS011;60696;51.426;6.934;2022-11-20T11:26:29;15.15;;;7.75;;
35026;SDS011;60696;51.426;6.934;2022-11-20T11:28:59;13.52;;;7.38;;
35026;SDS011;60696;51.426;6.934;2022-11-20T11:31:26;11.88;;;6.75;;
35026;SDS011;60696;51.426;6.934;2022-11-20T11:36:58;15.88;;;8.38;;
35026;SDS011;60696;51.426;6.934;2022-11-20T11:39:26;11.25;;;6.47;;
35026;SDS011;60696;51.426;6.934;2022-11-20T11:41:53;17.23;;;8.05;;
35026;SDS011;60696;51.426;6.934;2022-11-20T11:44:24;15.18;;;7.95;;
35026;SDS011;60696;51.426;6.934;2022-11-20T11:49:48;16.48;;;8.23;;
35026;SDS011;60696;51.426;6.934;2022-11-20T11:52:17;16.85;;;6.78;;
35026;SDS011;60696;51.426;6.934;2022-11-20T11:54:50;13.68;;;6.75;;
35026;SDS011;60696;51.426;6.934;2022-11-20T12:00:08;20.55;;;7.90;;
35026;SDS011;60696;51.426;6.934;2022-11-20T12:02:38;17.50;;;8.52;;
35026;SDS011;60696;51.426;6.934;2022-11-20T12:05:19;15.18;;;7.57;;
35026;SDS011;60696;51.426;6.934;2022-11-20T12:07:53;14.90;;;7.65;;
35026;SDS011;60696;51.426;6.934;2022-11-20T12:13:02;17.60;;;9.35;;
35026;SDS011;60696;51.426;6.934;2022-11-20T12:15:35;13.65;;;7.93;;
35026;SDS011;60696;51.426;6.934;2022-11-20T12:18:01;13.30;;;8.02;;
35026;SDS011;60696;51.426;6.934;2022-11-20T12:20:51;20.90;;;7.95;;
35026;SDS011;60696;51.426;6.934;2022-11-20T12:24:02;13.45;;;7.40;;
35026;SDS011;60696;51.426;6.934;2022-11-20T12:26:47;13.63;;;7.82;;
35026;SDS011;60696;51.426;6.934;2022-11-20T12:31:58;13.88;;;7.57;;
35026;SDS011;60696;51.426;6.934;2022-11-20T12:40:28;18.67;;;8.77;;
35026;SDS011;60696;51.426;6.934;2022-11-20T12:49:25;17.00;;;8.18;;
35026;SDS011;60696;51.426;6.934;2022-11-20T12:52:13;14.23;;;7.55;;
35026;SDS011;60696;51.426;6.934;2022-11-20T12:54:54;15.45;;;8.35;;
35026;SDS011;60696;51.426;6.934;2022-11-20T13:00:08;16.50;;;8.70;;
35026;SDS011;60696;51.426;6.934;2022-11-20T13:08:34;18.88;;;9.60;;
35026;SDS011;60696;51.426;6.934;2022-11-20T13:11:07;18.20;;;8.27;;
35026;SDS011;60696;51.426;6.934;2022-11-20T13:13:43;15.55;;;8.07;;
35026;SDS011;60696;51.426;6.934;2022-11-20T13:16:44;16.27;;;8.95;;
35026;SDS011;60696;51.426;6.934;2022-11-20T13:19:17;17.35;;;8.63;;
35026;SDS011;60696;51.426;6.934;2022-11-20T13:21:45;16.42;;;8.70;;
35026;SDS011;60696;51.426;6.934;2022-11-20T13:24:21;19.48;;;9.02;;
35026;SDS011;60696;51.426;6.934;2022-11-20T13:29:41;17.08;;;9.15;;
35026;SDS011;60696;51.426;6.934;2022-11-20T13:32:16;16.65;;;9.13;;
35026;SDS011;60696;51.426;6.934;2022-11-20T13:34:53;16.60;;;9.20;;
35026;SDS011;60696;51.426;6.934;2022-11-20T13:37:25;16.83;;;9.85;;
35026;SDS011;60696;51.426;6.934;2022-11-20T13:40:04;19.90;;;10.27;;
35026;SDS011;60696;51.426;6.934;2022-11-20T13:42:35;19.15;;;10.65;;
35026;SDS011;60696;51.426;6.934;2022-11-20T13:45:10;19.17;;;10.18;;
35026;SDS011;60696;51.426;6.934;2022-11-20T13:47:50;20.50;;;10.00;;
35026;SDS011;60696;51.426;6.934;2022-11-20T13:50:17;26.02;;;10.30;;
35026;SDS011;60696;51.426;6.934;2022-11-20T13:53:06;22.85;;;10.80;;
35026;SDS011;60696;51.426;6.934;2022-11-20T14:01:20;19.90;;;9.68;;
35026;SDS011;60696;51.426;6.934;2022-11-20T14:03:48;21.55;;;10.77;;
35026;SDS011;60696;51.426;6.934;2022-11-20T14:08:58;22.25;;;11.43;;
35026;SDS011;60696;51.426;6.934;2022-11-20T14:11:25;27.17;;;12.52;;
35026;SDS011;60696;51.426;6.934;2022-11-20T14:16:40;24.38;;;11.93;;
35026;SDS011;60696;51.426;6.934;2022-11-20T14:24:35;23.90;;;12.10;;
35026;SDS011;60696;51.426;6.934;2022-11-20T14:27:01;21.50;;;10.43;;
35026;SDS011;60696;51.426;6.934;2022-11-20T14:29:28;20.27;;;12.20;;
35026;SDS011;60696;51.426;6.934;2022-11-20T14:31:59;24.92;;;13.27;;
35026;SDS011;60696;51.426;6.934;2022-11-20T14:34:27;23.58;;;11.93;;
35026;SDS011;60696;51.426;6.934;2022-11-20T14:36:56;21.92;;;11.35;;
35026;SDS011;60696;51.426;6.934;2022-11-20T14:39:37;20.65;;;9.13;;
35026;SDS011;60696;51.426;6.934;2022-11-20T14:42:17;28.50;;;11.15;;
35026;SDS011;60696;51.426;6.934;2022-11-20T14:44:45;23.80;;;11.20;;
35026;SDS011;60696;51.426;6.934;2022-11-20T14:47:13;19.77;;;9.60;;
35026;SDS011;60696;51.426;6.934;2022-11-20T14:49:44;24.73;;;11.82;;
35026;SDS011;60696;51.426;6.934;2022-11-20T14:52:28;20.33;;;11.48;;
35026;SDS011;60696;51.426;6.934;2022-11-20T14:54:56;17.70;;;9.25;;
35026;SDS011;60696;51.426;6.934;2022-11-20T14:57:28;18.92;;;9.95;;
35026;SDS011;60696;51.426;6.934;2022-11-20T15:00:05;25.55;;;11.68;;
35026;SDS011;60696;51.426;6.934;2022-11-20T15:02:31;22.20;;;10.32;;
35026;SDS011;60696;51.426;6.934;2022-11-20T15:04:58;25.38;;;12.32;;
35026;SDS011;60696;51.426;6.934;2022-11-20T15:07:41;21.63;;;9.60;;
35026;SDS011;60696;51.426;6.934;2022-11-20T15:10:22;22.45;;;10.90;;
35026;SDS011;60696;51.426;6.934;2022-11-20T15:12:53;21.35;;;11.75;;
35026;SDS011;60696;51.426;6.934;2022-11-20T15:15:52;14.75;;;7.85;;
35026;SDS011;60696;51.426;6.934;2022-11-20T15:18:21;24.45;;;11.45;;
35026;SDS011;60696;51.426;6.934;2022-11-20T15:20:50;20.17;;;9.55;;
35026;SDS011;60696;51.426;6.934;2022-11-20T15:23:17;31.63;;;12.75;;
35026;SDS011;60696;51.426;6.934;2022-11-20T15:25:44;24.75;;;11.95;;
35026;SDS011;60696;51.426;6.934;2022-11-20T15:28:16;27.45;;;13.23;;
35026;SDS011;60696;51.426;6.934;2022-11-20T15:30:44;9.32;;;4.30;;
35026;SDS011;60696;51.426;6.934;2022-11-20T15:33:11;20.88;;;11.00;;
35026;SDS011;60696;51.426;6.934;2022-11-20T15:35:37;29.65;;;14.85;;
35026;SDS011;60696;51.426;6.934;2022-11-20T15:38:03;22.52;;;10.30;;
35026;SDS011;60696;51.426;6.934;2022-11-20T15:40:28;28.95;;;12.27;;
35026;SDS011;60696;51.426;6.934;2022-11-20T15:42:54;30.10;;;13.05;;
35026;SDS011;60696;51.426;6.934;2022-11-20T15:48:38;22.85;;;10.35;;
35026;SDS011;60696;51.426;6.934;2022-11-20T15:53:40;28.25;;;13.82;;
35026;SDS011;60696;51.426;6.934;2022-11-20T15:56:14;25.52;;;12.32;;
35026;SDS011;60696;51.426;6.934;2022-11-20T15:58:40;30.08;;;14.65;;
35026;SDS011;60696;51.426;6.934;2022-11-20T16:01:10;29.40;;;14.77;;
35026;SDS011;60696;51.426;6.934;2022-11-20T16:03:36;19.35;;;8.73;;
35026;SDS011;60696;51.426;6.934;2022-11-20T16:06:02;30.67;;;13.75;;
35026;SDS011;60696;51.426;6.934;2022-11-20T16:08:28;26.40;;;12.85;;
35026;SDS011;60696;51.426;6.934;2022-11-20T16:10:53;24.02;;;12.55;;
35026;SDS011;60696;51.426;6.934;2022-11-20T16:13:19;28.10;;;13.27;;
35026;SDS011;60696;51.426;6.934;2022-11-20T16:16:05;27.02;;;12.93;;
35026;SDS011;60696;51.426;6.934;2022-11-20T16:18:36;24.35;;;12.15;;
35026;SDS011;60696;51.426;6.934;2022-11-20T16:21:03;23.75;;;11.48;;
35026;SDS011;60696;51.426;6.934;2022-11-20T16:23:29;27.98;;;11.48;;
35026;SDS011;60696;51.426;6.934;2022-11-20T16:25:55;25.85;;;11.93;;
35026;SDS011;60696;51.426;6.934;2022-11-20T16:28:22;26.83;;;12.30;;
35026;SDS011;60696;51.426;6.934;2022-11-20T16:30:48;29.92;;;12.65;;
35026;SDS011;60696;51.426;6.934;2022-11-20T16:33:15;25.17;;;12.23;;